Time;durP1;ratioP1;P1;durP2;ratioP2;P2;SDS_P1;SDS_P2;PMS_P1;PMS_P2;Temp;Humidity;BMP_temperature;BMP_pressure;BME280_temperature;BME280_humidity;BME280_pressure;Samples;Min_cycle;Max_cycle;Signal;HPM_P1;HPM_P2
2022/06/28 00:04:06;;;;;;;1.83;0.70;;;;;;;19.54;57.58;100653.34;10347283;28;20076;-71
2022/06/28 00:09:07;;;;;;;0.93;0.60;;;;;;;19.54;56.79;100674.09;10345703;28;20046;-71
2022/06/28 00:19:31;;;;;;;3.17;1.08;;;;;;;19.45;56.81;100669.75;10346422;28;20056;-70
2022/06/28 00:24:32;;;;;;;2.65;0.73;;;;;;;19.41;57.00;100672.78;10345290;28;20042;-69
2022/06/28 00:29:33;;;;;;;1.85;0.80;;;;;;;19.35;57.07;100678.88;10343829;28;20184;-70
2022/06/28 00:34:35;;;;;;;1.80;1.17;;;;;;;19.26;57.99;100688.00;10345007;28;20045;-71
2022/06/28 00:39:36;;;;;;;3.17;1.48;;;;;;;19.15;58.98;100691.84;10342355;28;20152;-71
2022/06/28 00:44:38;;;;;;;3.25;1.50;;;;;;;19.03;59.73;100694.03;10349191;28;20141;-71
2022/06/28 00:49:41;;;;;;;3.30;1.75;;;;;;;18.96;60.61;100703.84;10348557;28;20227;-71
2022/06/28 00:54:42;;;;;;;2.25;1.60;;;;;;;18.93;61.24;100712.28;10352258;28;20049;-71
2022/06/28 00:59:43;;;;;;;1.77;1.67;;;;;;;18.98;61.49;100727.97;10349362;28;20372;-71
2022/06/28 01:04:45;;;;;;;3.15;1.90;;;;;;;18.95;61.71;100722.91;10353161;28;20063;-72
2022/06/28 01:09:46;;;;;;;4.40;2.42;;;;;;;18.91;62.20;100719.66;10350038;28;20053;-71
2022/06/28 01:14:48;;;;;;;4.00;2.40;;;;;;;18.92;62.10;100724.06;10347079;28;23977;-71
2022/06/28 01:19:49;;;;;;;3.63;2.40;;;;;;;18.81;62.48;100717.13;10347949;28;20541;-71
2022/06/28 01:24:50;;;;;;;4.82;2.78;;;;;;;18.80;62.95;100715.41;10355992;28;20054;-71
2022/06/28 01:29:52;;;;;;;4.10;3.08;;;;;;;18.80;62.67;100720.81;10344661;28;20159;-70
2022/06/28 01:34:53;;;;;;;3.15;2.60;;;;;;;18.71;63.26;100719.13;10355217;28;20063;-72
2022/06/28 01:39:55;;;;;;;4.20;3.58;;;;;;;18.69;63.46;100719.28;10354525;28;20077;-71
2022/06/28 01:44:58;;;;;;;3.63;3.15;;;;;;;18.66;63.49;100719.59;10354835;28;20046;-71
2022/06/28 01:49:59;;;;;;;4.53;3.13;;;;;;;18.68;63.46;100716.75;10353789;28;20136;-71
2022/06/28 01:55:01;;;;;;;3.60;2.70;;;;;;;18.66;63.52;100716.91;10354566;28;20132;-72
2022/06/28 02:00:03;;;;;;;2.50;2.30;;;;;;;18.62;64.00;100707.47;10358944;28;20049;-71
2022/06/28 02:05:05;;;;;;;2.88;2.67;;;;;;;18.52;64.02;100712.16;10359847;28;20160;-70
2022/06/28 02:10:07;;;;;;;4.43;2.83;;;;;;;18.47;64.04;100709.94;10354497;28;20056;-71
2022/06/28 02:15:09;;;;;;;4.45;3.00;;;;;;;18.48;64.26;100717.03;10357619;28;20046;-73
2022/06/28 02:20:12;;;;;;;4.68;3.10;;;;;;;18.47;64.50;100709.13;10355662;28;20054;-71
2022/06/28 02:25:14;;;;;;;5.18;3.58;;;;;;;18.46;64.60;100715.50;10345651;28;20192;-70
2022/06/28 02:30:15;;;;;;;4.63;3.10;;;;;;;18.29;64.78;100718.13;10349981;28;20143;-69
2022/06/28 02:40:36;;;;;;;4.28;3.30;;;;;;;18.09;65.61;100732.88;10346277;28;20148;-69
2022/06/28 02:45:39;;;;;;;3.80;3.40;;;;;;;17.97;65.98;100738.53;10350871;28;20585;-69
2022/06/28 02:50:41;;;;;;;3.53;3.27;;;;;;;17.94;66.10;100736.19;10352124;28;20064;-70
2022/06/28 02:55:42;;;;;;;5.03;3.50;;;;;;;17.90;66.41;100733.97;10361831;28;20122;-70
2022/06/28 03:00:44;;;;;;;4.78;3.72;;;;;;;17.83;66.69;100745.34;10361499;28;20595;-69
2022/06/28 03:05:46;;;;;;;4.30;3.85;;;;;;;17.76;66.81;100746.13;10348017;28;20061;-71
2022/06/28 03:10:47;;;;;;;4.22;3.80;;;;;;;17.73;67.53;100749.13;10352177;28;20041;-69
2022/06/28 03:15:49;;;;;;;4.60;4.10;;;;;;;17.72;67.15;100752.84;10350594;28;20045;-70
2022/06/28 03:20:50;;;;;;;5.93;3.92;;;;;;;17.62;67.65;100743.00;10355499;28;20052;-71
2022/06/28 03:25:52;;;;;;;6.90;4.13;;;;;;;17.59;68.08;100756.75;10349902;28;20076;-70
2022/06/28 03:30:54;;;;;;;6.22;4.75;;;;;;;17.54;68.18;100756.41;10350777;28;20339;-69
2022/06/28 03:35:55;;;;;;;5.32;4.90;;;;;;;17.50;68.42;100760.41;10348220;28;20049;-71
2022/06/28 03:40:56;;;;;;;4.57;4.10;;;;;;;17.47;68.30;100771.47;10349459;28;20044;-69
2022/06/28 03:45:58;;;;;;;9.90;5.78;;;;;;;17.43;68.55;100780.84;10351943;28;20064;-70
2022/06/28 03:50:59;;;;;;;4.80;4.30;;;;;;;17.41;68.63;100788.25;10346489;28;20046;-70
2022/06/28 03:56:01;;;;;;;5.40;4.55;;;;;;;17.35;68.78;100789.72;10342546;28;20045;-70
2022/06/28 04:01:03;;;;;;;4.63;4.20;;;;;;;17.35;69.10;100786.19;10348701;28;20136;-70
2022/06/28 04:06:05;;;;;;;4.30;3.70;;;;;;;17.41;68.93;100793.63;10348435;28;20049;-70
2022/06/28 04:11:15;;;;;;;4.97;4.47;;;;;;;17.46;68.74;100794.88;10350726;28;20531;-70
2022/06/28 04:16:18;;;;;;;4.60;4.20;;;;;;;17.45;68.97;100795.03;10344312;28;20068;-69
2022/06/28 04:21:21;;;;;;;4.72;4.15;;;;;;;17.42;68.96;100789.97;10347005;28;20128;-69
2022/06/28 04:26:22;;;;;;;5.07;4.63;;;;;;;17.42;69.20;100800.72;10347055;28;20049;-68
2022/06/28 04:31:23;;;;;;;6.25;4.78;;;;;;;17.44;69.70;100809.47;10345251;28;20061;-70
2022/06/28 04:36:26;;;;;;;5.07;4.57;;;;;;;17.47;69.32;100809.16;10345860;28;20147;-69
2022/06/28 04:41:28;;;;;;;5.85;4.10;;;;;;;17.48;69.19;100805.47;10347330;28;20081;-71
2022/06/28 04:46:29;;;;;;;4.57;4.05;;;;;;;17.47;69.33;100810.03;10350646;28;20132;-70
2022/06/28 04:51:30;;;;;;;5.22;4.78;;;;;;;17.50;68.95;100808.84;10340880;28;20726;-71
2022/06/28 04:56:32;;;;;;;4.93;4.13;;;;;;;17.53;69.07;100795.06;10340232;28;20041;-71
2022/06/28 05:01:33;;;;;;;4.55;4.10;;;;;;;17.57;69.07;100799.16;10323351;28;20574;-69
2022/06/28 05:06:35;;;;;;;4.32;3.92;;;;;;;17.62;68.85;100807.59;10333645;28;20477;-70
2022/06/28 05:11:37;;;;;;;4.00;3.60;;;;;;;17.69;69.35;100807.00;10336650;28;20053;-70
2022/06/28 05:16:38;;;;;;;4.45;3.83;;;;;;;17.72;69.37;100795.91;10342214;28;20058;-70
2022/06/28 05:21:40;;;;;;;4.80;4.15;;;;;;;17.80;68.38;100802.19;10337882;28;20065;-71
2022/06/28 05:26:42;;;;;;;5.88;4.38;;;;;;;17.88;68.90;100798.72;10341722;28;20071;-70
2022/06/28 05:31:44;;;;;;;6.13;5.38;;;;;;;17.89;68.31;100795.03;10337108;28;20052;-69
2022/06/28 05:36:45;;;;;;;5.68;5.18;;;;;;;17.92;67.92;100792.03;10344148;28;20524;-69
2022/06/28 05:41:47;;;;;;;5.30;4.82;;;;;;;18.05;67.60;100790.78;10311741;28;20057;-68
2022/06/28 05:46:49;;;;;;;4.68;4.15;;;;;;;18.20;68.54;100791.88;10344443;28;21193;-69
2022/06/28 05:51:51;;;;;;;5.72;4.90;;;;;;;18.34;67.56;100790.41;10337915;28;20057;-68
2022/06/28 05:56:52;;;;;;;5.30;4.50;;;;;;;18.46;66.54;100790.97;10332426;28;20194;-69
2022/06/28 06:01:55;;;;;;;5.05;4.53;;;;;;;18.25;67.75;100799.47;10331808;28;20050;-69
2022/06/28 06:06:57;;;;;;;5.35;3.88;;;;;;;18.50;67.49;100792.34;10346262;28;20068;-70
2022/06/28 06:11:58;;;;;;;4.93;4.40;;;;;;;18.73;65.91;100793.44;10345125;28;20061;-70
2022/06/28 06:17:00;;;;;;;4.95;4.22;;;;;;;18.87;64.49;100805.47;10341530;28;20061;-69
2022/06/28 06:22:01;;;;;;;3.90;3.50;;;;;;;18.99;64.17;100803.31;10353377;28;20053;-67
2022/06/28 06:27:03;;;;;;;5.70;2.97;;;;;;;19.08;62.68;100796.94;10350802;28;20107;-67
2022/06/28 06:32:05;;;;;;;4.95;3.53;;;;;;;19.06;61.85;100793.53;10345640;28;20053;-67
2022/06/28 06:37:06;;;;;;;3.22;2.28;;;;;;;18.89;59.64;100811.53;10348460;28;20133;-67
2022/06/28 06:42:08;;;;;;;4.13;2.88;;;;;;;19.03;62.78;100796.56;10350213;28;20037;-67
2022/06/28 06:47:09;;;;;;;3.20;2.60;;;;;;;19.25;62.33;100805.03;10352003;28;20056;-68
2022/06/28 06:52:11;;;;;;;2.50;1.92;;;;;;;19.51;60.14;100807.56;10342337;28;20196;-67
2022/06/28 06:57:14;;;;;;;3.40;1.95;;;;;;;19.74;59.27;100804.19;10350741;28;20244;-67
2022/06/28 07:02:15;;;;;;;0.60;0.50;;;;;;;19.88;53.99;100800.84;10343722;28;20053;-67
2022/06/28 07:07:17;;;;;;;1.90;0.80;;;;;;;20.01;52.93;100794.06;10351625;28;20053;-69
2022/06/28 07:12:19;;;;;;;2.30;0.80;;;;;;;20.06;52.69;100802.50;10360804;28;20134;-69
2022/06/28 07:17:20;;;;;;;4.13;1.40;;;;;;;20.06;51.27;100795.25;10348729;28;20068;-68
2022/06/28 07:22:22;;;;;;;2.10;0.82;;;;;;;20.18;52.44;100789.47;10346085;28;20504;-68
2022/06/28 07:27:23;;;;;;;1.15;0.88;;;;;;;20.27;51.92;100783.03;10329837;28;20068;-69
2022/06/28 07:32:25;;;;;;;0.95;0.47;;;;;;;20.56;50.85;100787.78;10326401;28;20532;-69
2022/06/28 07:37:26;;;;;;;2.10;0.30;;;;;;;20.58;48.61;100780.38;10350752;28;20051;-68
2022/06/28 07:42:30;;;;;;;0.60;0.40;;;;;;;20.81;47.95;100779.59;10351337;28;20040;-69
2022/06/28 07:47:31;;;;;;;0.57;0.32;;;;;;;20.81;48.29;100788.53;10346681;28;20053;-69
2022/06/28 07:52:39;;;;;;;1.80;0.50;;;;;;;20.90;48.27;100793.94;10342980;28;20742;-70
2022/06/28 07:57:41;;;;;;;1.33;0.88;;;;;;;20.98;47.24;100783.88;10339773;28;20057;-69
2022/06/28 08:02:42;;;;;;;1.77;0.57;;;;;;;21.06;46.06;100784.84;10336652;28;20411;-70
2022/06/28 08:07:45;;;;;;;1.75;0.93;;;;;;;21.05;46.66;100785.84;10330790;28;20053;-68
2022/06/28 08:12:46;;;;;;;1.05;0.35;;;;;;;21.25;46.72;100781.66;10341012;28;20452;-70
2022/06/28 08:17:48;;;;;;;0.75;0.47;;;;;;;21.46;46.07;100780.97;10345571;28;20050;-69
2022/06/28 08:22:49;;;;;;;1.10;0.40;;;;;;;21.71;43.77;100775.38;10348498;28;20164;-69
2022/06/28 08:27:51;;;;;;;1.10;0.32;;;;;;;21.83;44.69;100773.91;10337753;28;20045;-70
2022/06/28 08:32:53;;;;;;;1.92;0.70;;;;;;;22.23;42.97;100758.22;10342372;28;20048;-69
2022/06/28 08:37:55;;;;;;;2.35;0.30;;;;;;;22.17;40.53;100756.28;10342572;28;20168;-69
2022/06/28 08:42:58;;;;;;;1.25;0.30;;;;;;;22.37;40.55;100750.31;10346147;28;20550;-69
2022/06/28 08:48:33;;;;;;;2.03;0.60;;;;;;;22.60;42.28;100745.56;10342749;28;20049;-69
2022/06/28 08:53:38;;;;;;;0.88;0.25;;;;;;;22.35;39.71;100749.63;10341379;28;20040;-69
2022/06/28 08:58:44;;;;;;;0.60;0.40;;;;;;;22.53;39.94;100739.25;10346025;28;20109;-68
2022/06/28 09:03:50;;;;;;;0.88;0.50;;;;;;;22.73;39.56;100731.31;10343793;28;20053;-68
2022/06/28 09:08:52;;;;;;;1.48;0.20;;;;;;;23.08;40.12;100722.47;10343061;28;20098;-68
2022/06/28 09:13:53;;;;;;;1.10;0.30;;;;;;;23.43;39.90;100719.88;10338562;28;20407;-68
2022/06/28 09:18:55;;;;;;;1.10;0.20;;;;;;;23.83;35.83;100715.56;10338994;28;20049;-68
2022/06/28 09:24:01;;;;;;;1.45;0.40;;;;;;;23.82;36.49;100713.91;10346493;28;20053;-68
2022/06/28 09:29:12;;;;;;;1.98;0.30;;;;;;;24.04;37.42;100704.84;10343487;28;20520;-67
2022/06/28 09:34:13;;;;;;;2.10;0.90;;;;;;;24.25;37.51;100702.00;10343604;28;20049;-68
2022/06/28 09:39:18;;;;;;;1.63;0.30;;;;;;;24.32;35.61;100682.97;10346088;28;20053;-69
2022/06/28 09:44:25;;;;;;;1.30;0.40;;;;;;;24.64;35.91;100689.59;10333685;28;20459;-67
2022/06/28 09:49:28;;;;;;;0.95;0.43;;;;;;;25.10;34.28;100687.13;10341672;28;20128;-68
2022/06/28 09:54:33;;;;;;;1.55;0.30;;;;;;;25.20;36.18;100682.13;10350284;28;20057;-68
2022/06/28 09:59:34;;;;;;;0.60;0.20;;;;;;;25.47;35.43;100671.22;10354135;28;20125;-69
2022/06/28 10:04:36;;;;;;;1.08;0.25;;;;;;;25.68;33.56;100656.50;10351578;28;20501;-67
2022/06/28 10:09:38;;;;;;;2.15;0.30;;;;;;;25.83;33.03;100635.28;10349373;28;20507;-67
2022/06/28 10:20:03;;;;;;;0.73;0.40;;;;;;;26.27;32.47;100630.06;10349218;28;20049;-70
2022/06/28 10:25:15;;;;;;;1.15;0.38;;;;;;;26.11;32.45;100647.81;10347319;28;20048;-67
2022/06/28 10:30:24;;;;;;;0.73;0.45;;;;;;;26.58;31.92;100650.28;10346480;28;20057;-68
2022/06/28 10:35:29;;;;;;;0.60;0.20;;;;;;;26.84;30.55;100645.72;10350855;28;20053;-68
2022/06/28 10:40:47;;;;;;;1.40;0.10;;;;;;;26.97;32.04;100637.41;10337133;28;20145;-67
2022/06/28 10:46:02;;;;;;;2.40;0.30;;;;;;;26.97;31.22;100640.16;10351481;28;20050;-67
2022/06/28 10:51:04;;;;;;;0.82;0.40;;;;;;;27.02;28.74;100645.75;10337852;28;20052;-71
2022/06/28 10:56:12;;;;;;;1.85;0.52;;;;;;;27.14;31.32;100640.41;10349365;28;20049;-67
2022/06/28 11:01:38;;;;;;;1.65;0.20;;;;;;;27.19;29.48;100623.34;10329789;28;20053;-69
2022/06/28 11:06:41;;;;;;;2.30;0.30;;;;;;;27.20;29.09;100608.63;10347508;28;20465;-69
2022/06/28 11:12:16;;;;;;;1.10;0.50;;;;;;;27.44;28.85;100605.06;10354895;28;20053;-69
2022/06/28 11:17:29;;;;;;;2.05;0.30;;;;;;;27.73;26.43;100596.31;10357063;28;21144;-69
2022/06/28 11:22:32;;;;;;;1.45;0.32;;;;;;;27.69;28.63;100580.34;10344816;28;20207;-68
2022/06/28 11:27:34;;;;;;;1.67;0.38;;;;;;;27.67;29.10;100570.72;10344030;28;20145;-68
2022/06/28 11:32:39;;;;;;;1.10;0.27;;;;;;;27.68;28.46;100561.44;10333817;28;20061;-68
2022/06/28 11:37:55;;;;;;;1.08;0.30;;;;;;;27.64;28.16;100560.25;10345042;28;20916;-66
2022/06/28 11:43:10;;;;;;;1.42;0.20;;;;;;;27.64;27.83;100560.25;10351432;28;20047;-67
2022/06/28 11:48:16;;;;;;;1.65;0.30;;;;;;;27.67;27.08;100543.38;10352542;28;20139;-68
2022/06/28 11:53:19;;;;;;;1.63;0.20;;;;;;;27.84;28.02;100541.66;10346994;28;20251;-68
2022/06/28 11:58:25;;;;;;;0.85;0.30;;;;;;;27.80;26.54;100554.16;10331340;28;20057;-67
2022/06/28 12:03:26;;;;;;;0.50;0.20;;;;;;;27.72;26.78;100543.53;10342308;28;20049;-69
2022/06/28 12:08:42;;;;;;;0.97;0.20;;;;;;;27.73;27.63;100527.94;10342045;28;20045;-69
2022/06/28 12:13:44;;;;;;;1.60;0.50;;;;;;;27.88;28.21;100522.91;10353656;28;20052;-68
2022/06/28 12:18:55;;;;;;;0.90;0.30;;;;;;;27.97;27.84;100504.28;10346140;28;20164;-69
2022/06/28 12:23:57;;;;;;;1.42;0.20;;;;;;;27.99;27.38;100491.22;10341019;28;20203;-68
2022/06/28 12:28:59;;;;;;;0.80;0.20;;;;;;;27.92;27.79;100495.91;10343323;28;20064;-70
2022/06/28 12:34:10;;;;;;;2.45;0.30;;;;;;;27.94;27.72;100501.97;10342567;28;20398;-69
2022/06/28 12:39:11;;;;;;;0.70;0.40;;;;;;;27.92;27.97;100528.75;10342890;28;20478;-71
2022/06/28 12:44:13;;;;;;;1.00;0.27;;;;;;;27.76;28.57;100525.59;10341354;28;20054;-69
2022/06/28 12:49:14;;;;;;;1.40;0.25;;;;;;;27.59;28.79;100510.88;10343743;28;20052;-69
2022/06/28 12:54:16;;;;;;;1.23;0.30;;;;;;;27.71;28.86;100495.34;10348852;28;20052;-69
2022/06/28 12:59:23;;;;;;;1.30;0.30;;;;;;;27.74;29.57;100486.69;10336857;28;20188;-69
2022/06/28 13:04:25;;;;;;;1.90;0.38;;;;;;;27.59;27.22;100483.53;10337785;28;20052;-69
2022/06/28 13:09:27;;;;;;;1.27;0.20;;;;;;;27.45;27.97;100470.03;10344988;28;20050;-70
2022/06/28 13:14:28;;;;;;;1.23;0.30;;;;;;;27.52;28.34;100469.97;10333540;28;20288;-70
2022/06/28 13:19:29;;;;;;;0.70;0.20;;;;;;;27.46;28.59;100444.38;10337831;28;20049;-71
2022/06/28 13:24:32;;;;;;;0.63;0.20;;;;;;;27.52;28.69;100423.50;10331887;28;20837;-69
2022/06/28 13:29:34;;;;;;;1.10;0.55;;;;;;;27.40;27.33;100417.97;10348015;28;20160;-69
2022/06/28 13:34:35;;;;;;;0.65;0.28;;;;;;;27.41;28.79;100408.69;10351409;28;20058;-69
2022/06/28 13:39:36;;;;;;;0.95;0.22;;;;;;;27.37;27.13;100393.84;10348187;28;20049;-68
2022/06/28 13:44:38;;;;;;;1.60;0.43;;;;;;;27.27;28.53;100386.16;10350938;28;20633;-69
2022/06/28 13:49:47;;;;;;;1.38;0.40;;;;;;;27.36;28.31;100373.03;10357830;28;20497;-71
2022/06/28 13:54:48;;;;;;;1.10;0.45;;;;;;;27.33;28.47;100362.59;10348308;28;20440;-71
2022/06/28 13:59:51;;;;;;;1.40;0.38;;;;;;;27.43;28.84;100367.47;10363346;28;20052;-70
2022/06/28 14:04:54;;;;;;;2.25;0.25;;;;;;;27.37;28.56;100379.34;10358865;28;20068;-70
2022/06/28 14:09:55;;;;;;;2.80;0.35;;;;;;;27.35;28.20;100390.50;10347146;28;20164;-70
2022/06/28 14:14:57;;;;;;;1.98;0.30;;;;;;;27.19;27.47;100380.19;10343962;28;20059;-70
2022/06/28 14:19:58;;;;;;;1.42;0.30;;;;;;;27.24;28.63;100383.88;10350510;28;20049;-70
2022/06/28 14:25:00;;;;;;;0.93;0.25;;;;;;;27.31;28.99;100370.97;10355861;28;20053;-69
2022/06/28 14:30:01;;;;;;;1.17;0.20;;;;;;;27.43;28.91;100349.19;10351111;28;20661;-70
2022/06/28 14:35:04;;;;;;;0.82;0.30;;;;;;;27.49;28.66;100334.59;10353074;28;20046;-70
2022/06/28 14:40:06;;;;;;;0.40;0.20;;;;;;;27.44;28.44;100326.28;10358853;28;20462;-70
2022/06/28 14:45:08;;;;;;;1.33;0.20;;;;;;;27.37;28.36;100328.25;10360827;28;20613;-70
2022/06/28 14:50:12;;;;;;;1.95;0.20;;;;;;;27.25;29.05;100336.38;10363242;28;20053;-69
2022/06/28 14:55:13;;;;;;;1.47;0.30;;;;;;;27.12;29.35;100331.09;10367714;28;20042;-69
2022/06/28 15:00:15;;;;;;;2.75;0.55;;;;;;;27.10;29.47;100325.88;10374555;28;20132;-69
2022/06/28 15:05:24;;;;;;;1.80;0.45;;;;;;;27.12;29.46;100317.44;10373650;28;20435;-70
2022/06/28 15:10:26;;;;;;;1.27;0.20;;;;;;;27.12;29.90;100315.53;10350154;28;20649;-70
2022/06/28 15:15:27;;;;;;;0.50;0.20;;;;;;;27.14;29.91;100310.69;10349513;28;20754;-69
2022/06/28 15:20:29;;;;;;;0.33;0.30;;;;;;;27.05;29.47;100311.22;10346297;28;20071;-69
2022/06/28 15:30:53;;;;;;;1.05;0.35;;;;;;;26.86;30.67;100274.94;10341653;28;20061;-69
2022/06/28 15:36:02;;;;;;;1.05;0.20;;;;;;;26.84;30.43;100293.44;10354694;28;20381;-70
2022/06/28 15:41:04;;;;;;;1.42;0.30;;;;;;;26.70;30.16;100287.34;10340998;28;20061;-67
2022/06/28 15:46:05;;;;;;;2.55;0.40;;;;;;;26.73;31.28;100275.94;10345200;28;20756;-70
2022/06/28 15:51:07;;;;;;;0.88;0.20;;;;;;;26.79;31.22;100277.75;10341890;28;20088;-69
2022/06/28 15:56:08;;;;;;;0.63;0.30;;;;;;;26.91;31.66;100261.44;10348323;28;20054;-68
2022/06/28 16:01:10;;;;;;;1.58;0.38;;;;;;;26.97;31.04;100257.78;10345124;28;20620;-69
2022/06/28 16:06:11;;;;;;;0.83;0.27;;;;;;;26.97;31.32;100242.22;10333860;28;20611;-69
2022/06/28 16:11:13;;;;;;;1.40;0.32;;;;;;;26.99;30.92;100241.97;10334090;28;20136;-69
2022/06/28 16:16:14;;;;;;;1.17;0.38;;;;;;;26.99;31.59;100234.63;10329352;28;20049;-68
2022/06/28 16:21:17;;;;;;;2.42;0.52;;;;;;;26.98;31.13;100234.88;10348382;28;20145;-70
2022/06/28 16:26:18;;;;;;;1.02;0.50;;;;;;;26.93;31.12;100229.25;10347775;28;20611;-70
2022/06/28 16:31:19;;;;;;;0.98;0.60;;;;;;;26.93;32.11;100223.78;10337728;28;20050;-70
2022/06/28 16:36:21;;;;;;;1.27;0.80;;;;;;;27.02;31.87;100225.13;10343453;28;20045;-70
2022/06/28 16:41:25;;;;;;;2.10;0.50;;;;;;;27.03;31.40;100218.59;10343735;28;20210;-73
2022/06/28 16:46:26;;;;;;;0.77;0.20;;;;;;;27.08;31.61;100210.56;10340959;28;20041;-77
2022/06/28 16:51:28;;;;;;;1.83;0.30;;;;;;;27.09;31.78;100201.28;10343684;28;20851;-72
2022/06/28 16:56:29;;;;;;;0.93;0.22;;;;;;;27.16;31.52;100204.75;10345734;28;20107;-72
2022/06/28 17:01:31;;;;;;;1.55;0.40;;;;;;;27.21;31.28;100195.84;10325751;28;20050;-70
2022/06/28 17:11:52;;;;;;;2.55;0.35;;;;;;;27.22;31.76;100192.03;10352847;28;20128;-70
2022/06/28 17:16:54;;;;;;;1.67;0.60;;;;;;;27.24;31.61;100189.06;10340519;28;20045;-70
2022/06/28 17:21:55;;;;;;;2.60;0.40;;;;;;;27.29;31.42;100183.72;10345781;28;20060;-70
2022/06/28 17:26:57;;;;;;;5.80;0.40;;;;;;;27.28;31.27;100166.50;10356338;28;20566;-70
2022/06/28 17:31:58;;;;;;;1.20;0.30;;;;;;;27.24;30.78;100181.69;10353242;28;20690;-71
2022/06/28 17:37:00;;;;;;;0.98;0.25;;;;;;;27.16;30.82;100171.97;10350091;28;20595;-73
2022/06/28 17:42:02;;;;;;;2.03;0.32;;;;;;;27.14;30.34;100170.53;10352523;28;20284;-73
2022/06/28 17:47:04;;;;;;;1.05;0.30;;;;;;;27.05;30.53;100164.56;10350261;28;20749;-72
2022/06/28 17:52:06;;;;;;;0.93;0.30;;;;;;;26.90;30.62;100158.72;10331903;28;20231;-71
2022/06/28 17:57:10;;;;;;;1.95;0.38;;;;;;;26.86;30.62;100149.31;10330408;28;20065;-72
2022/06/28 18:02:12;;;;;;;1.48;0.40;;;;;;;26.80;30.88;100154.66;10344931;28;20889;-72
2022/06/28 18:07:13;;;;;;;2.58;0.47;;;;;;;26.65;31.06;100146.03;10342348;28;20516;-72
2022/06/28 18:12:15;;;;;;;1.02;0.38;;;;;;;26.56;31.34;100147.44;10348717;28;20692;-71
2022/06/28 18:17:17;;;;;;;2.80;0.33;;;;;;;26.44;30.27;100147.41;10356739;28;20054;-73
2022/06/28 18:22:19;;;;;;;1.30;0.50;;;;;;;26.32;30.79;100146.50;10354419;28;20054;-71
2022/06/28 18:27:20;;;;;;;2.97;0.50;;;;;;;26.20;31.40;100157.38;10354731;28;20118;-70
2022/06/28 18:32:23;;;;;;;0.85;0.30;;;;;;;26.05;31.52;100139.50;10352968;28;20995;-69
2022/06/28 18:37:24;;;;;;;;;;;;;;;25.93;31.42;100130.38;10350459;28;20045;-71
2022/06/28 18:42:26;;;;;;;1.48;0.17;;;;;;;25.84;32.27;100131.75;10345687;28;19932;-71
2022/06/28 18:47:27;;;;;;;2.53;0.60;;;;;;;25.72;32.63;100120.78;10347341;28;20072;-70
2022/06/28 18:52:29;;;;;;;1.65;0.55;;;;;;;25.59;33.35;100124.47;10344147;28;20041;-69
2022/06/28 18:57:30;;;;;;;2.05;0.40;;;;;;;25.46;33.29;100132.75;10343717;28;20052;-70
2022/06/28 19:02:32;;;;;;;0.90;0.32;;;;;;;25.30;34.16;100129.56;10346728;28;20127;-70
2022/06/28 19:07:33;;;;;;;2.08;0.65;;;;;;;25.21;35.06;100128.16;10350774;28;20064;-68
2022/06/28 19:12:35;;;;;;;1.55;0.57;;;;;;;25.13;35.63;100128.44;10345136;28;20067;-69
2022/06/28 19:17:37;;;;;;;1.63;1.13;;;;;;;24.92;36.38;100124.19;10345688;28;20150;-68
2022/06/28 19:22:41;;;;;;;2.17;0.50;;;;;;;24.79;36.75;100130.59;10347690;28;20106;-68
2022/06/28 19:27:46;;;;;;;1.58;0.35;;;;;;;24.68;36.79;100132.97;10346576;28;20053;-68
2022/06/28 19:32:48;;;;;;;2.05;0.40;;;;;;;24.60;36.96;100135.09;10343753;28;20132;-68
2022/06/28 19:37:51;;;;;;;2.55;0.30;;;;;;;24.53;37.01;100146.00;10342214;28;20056;-68
2022/06/28 19:42:52;;;;;;;;;;;;;;;24.40;36.97;100152.34;10334110;28;20050;-70
2022/06/28 19:47:54;;;;;;;2.85;0.40;;;;;;;24.29;37.31;100155.72;10338078;28;21029;-69
2022/06/28 19:52:55;;;;;;;1.85;0.50;;;;;;;24.23;37.47;100171.06;10349260;28;20053;-69
2022/06/28 19:57:57;;;;;;;1.05;0.43;;;;;;;24.07;37.04;100168.81;10348913;28;20057;-68
2022/06/28 20:02:58;;;;;;;1.45;0.47;;;;;;;24.09;37.95;100169.41;10336913;28;20053;-70
2022/06/28 20:08:01;;;;;;;2.88;0.50;;;;;;;24.06;37.66;100172.56;10338356;28;20202;-69
2022/06/28 20:13:06;;;;;;;2.10;0.38;;;;;;;24.03;37.41;100178.44;10336371;28;20585;-70
2022/06/28 20:18:08;;;;;;;2.28;0.45;;;;;;;23.92;37.17;100172.59;10338235;28;20864;-67
2022/06/28 20:23:09;;;;;;;1.52;0.50;;;;;;;23.95;37.65;100176.78;10341277;28;20088;-68
2022/06/28 20:28:11;;;;;;;2.17;0.60;;;;;;;23.85;37.99;100165.50;10342943;28;20140;-69
2022/06/28 20:33:12;;;;;;;1.90;0.52;;;;;;;23.78;37.40;100166.34;10339693;28;20423;-69
2022/06/28 20:38:14;;;;;;;1.00;0.40;;;;;;;23.67;37.74;100166.16;10336479;28;20049;-68
2022/06/28 20:43:15;;;;;;;1.60;0.47;;;;;;;23.62;38.50;100162.19;10347187;28;20897;-70
2022/06/28 20:48:17;;;;;;;1.92;0.40;;;;;;;23.43;37.80;100160.34;10342214;28;20644;-68
2022/06/28 20:53:18;;;;;;;1.45;0.40;;;;;;;23.40;38.33;100149.88;10332469;28;20049;-70
2022/06/28 20:58:24;;;;;;;2.55;0.40;;;;;;;23.25;39.54;100159.06;10341146;28;20084;-69
2022/06/28 21:03:26;;;;;;;1.40;0.50;;;;;;;23.00;38.92;100156.13;10338576;28;20247;-68
2022/06/28 21:08:30;;;;;;;2.35;0.50;;;;;;;22.97;39.38;100144.84;10334788;28;21211;-68
2022/06/28 21:13:31;;;;;;;;;;;;;;;22.93;39.68;100139.00;10339513;28;20053;-68
2022/06/28 21:18:36;;;;;;;1.35;0.50;;;;;;;22.90;39.66;100126.69;10344164;28;19920;-67
2022/06/28 21:23:38;;;;;;;1.10;0.50;;;;;;;22.85;39.88;100126.47;10340168;28;20053;-68
2022/06/28 21:28:41;;;;;;;2.95;1.17;;;;;;;22.87;39.77;100129.00;10341455;28;20058;-68
2022/06/28 21:33:43;;;;;;;1.65;0.70;;;;;;;22.77;40.30;100129.38;10339616;28;20105;-68
2022/06/28 21:38:45;;;;;;;2.30;0.60;;;;;;;22.80;40.53;100137.09;10360033;28;20119;-68
2022/06/28 21:43:47;;;;;;;4.20;0.85;;;;;;;22.78;39.91;100136.50;10349780;28;20227;-71
2022/06/28 21:48:48;;;;;;;2.67;0.60;;;;;;;22.71;40.25;100124.78;10344418;28;20056;-70
2022/06/28 21:53:49;;;;;;;0.95;0.57;;;;;;;22.68;40.54;100126.03;10351496;28;20123;-69
2022/06/28 21:58:51;;;;;;;2.72;0.47;;;;;;;22.68;40.42;100126.03;10351664;28;20053;-70
2022/06/28 22:03:52;;;;;;;4.28;1.30;;;;;;;22.69;40.58;100135.00;10354100;28;20054;-69
2022/06/28 22:08:53;;;;;;;3.25;1.10;;;;;;;22.68;40.98;100125.19;10355318;28;20674;-69
2022/06/28 22:13:59;;;;;;;2.25;0.75;;;;;;;22.62;41.10;100112.47;10354004;28;20050;-69
2022/06/28 22:19:02;;;;;;;0.98;0.50;;;;;;;22.60;41.04;100104.53;10355399;28;20049;-70
2022/06/28 22:24:04;;;;;;;3.97;0.68;;;;;;;22.56;41.06;100101.41;10353908;28;20104;-67
2022/06/28 22:29:06;;;;;;;1.38;0.52;;;;;;;22.56;40.95;100105.97;10349947;28;20140;-69
2022/06/28 22:34:07;;;;;;;1.50;0.90;;;;;;;22.49;41.08;100103.25;10353022;28;20061;-69
2022/06/28 22:39:08;;;;;;;2.00;0.73;;;;;;;22.46;41.42;100106.38;10350729;28;20045;-69
2022/06/28 22:44:10;;;;;;;2.55;0.77;;;;;;;22.28;41.77;100097.94;10351055;28;20566;-70
2022/06/28 22:49:11;;;;;;;1.65;0.73;;;;;;;22.26;41.53;100103.56;10350335;28;20057;-69
2022/06/28 22:54:13;;;;;;;1.92;0.95;;;;;;;22.17;42.08;100097.53;10350132;28;20054;-68
2022/06/28 22:59:14;;;;;;;2.03;0.77;;;;;;;22.22;41.27;100091.50;10352250;28;20148;-68
2022/06/28 23:04:16;;;;;;;1.13;0.50;;;;;;;22.20;41.92;100096.25;10349549;28;20045;-68
2022/06/28 23:09:17;;;;;;;1.58;0.73;;;;;;;22.19;42.20;100081.88;10350460;28;20060;-67
2022/06/28 23:14:21;;;;;;;0.90;0.60;;;;;;;22.20;42.23;100082.72;10351531;28;20056;-68
2022/06/28 23:19:23;;;;;;;1.50;1.10;;;;;;;22.19;42.46;100083.75;10350942;28;20052;-67
2022/06/28 23:24:24;;;;;;;2.00;0.57;;;;;;;22.05;41.32;100075.59;10350433;28;20140;-68
2022/06/28 23:29:26;;;;;;;1.55;0.68;;;;;;;21.97;41.74;100070.34;10355060;28;20075;-68
2022/06/28 23:34:27;;;;;;;1.83;0.63;;;;;;;21.91;42.36;100076.56;10351538;28;20142;-69
2022/06/28 23:39:28;;;;;;;4.32;0.70;;;;;;;21.95;42.42;100076.97;10347989;28;20088;-67